createdAt,value
2023-02-12T00:01:36.475Z,47.42
2023-02-12T00:04:24.993Z,44.63
2023-02-12T00:07:13.219Z,45.63
2023-02-12T00:09:54.953Z,42.40
2023-02-12T00:12:37.142Z,43.80
2023-02-12T00:15:26.052Z,40.45
2023-02-12T00:18:15.272Z,40.47
2023-02-12T00:20:56.967Z,41.10
2023-02-12T00:23:47.324Z,38.60
2023-02-12T00:26:30.944Z,37.72
2023-02-12T00:29:13.152Z,38.60
2023-02-12T00:32:01.967Z,37.58
2023-02-12T00:34:50.178Z,37.17
2023-02-12T00:37:32.009Z,34.33
2023-02-12T00:40:21.224Z,35.55
2023-02-12T00:43:02.924Z,32.50
2023-02-12T00:45:53.413Z,34.85
2023-02-12T00:48:36.948Z,29.45
2023-02-12T00:51:25.221Z,29.17
2023-02-12T00:54:06.961Z,28.83
2023-02-12T00:56:57.015Z,27.55
2023-02-12T00:59:39.967Z,28.63
2023-02-12T01:02:28.857Z,28.40
2023-02-12T01:05:18.950Z,27.80
2023-02-12T01:08:01.277Z,28.30
2023-02-12T01:10:49.965Z,28.70
2023-02-12T01:13:42.952Z,28.52
2023-02-12T01:16:39.193Z,29.98
2023-02-12T01:19:28.911Z,28.55
2023-02-12T01:22:12.008Z,26.65
2023-02-12T01:25:00.251Z,27.40
2023-02-12T01:27:41.894Z,27.08
2023-02-12T01:30:31.519Z,24.80
2023-02-12T01:33:25.942Z,24.23
2023-02-12T01:36:15.345Z,24.67
2023-02-12T01:38:57.902Z,24.08
2023-02-12T01:41:52.131Z,25.25
2023-02-12T01:44:38.360Z,25.55
2023-02-12T01:47:26.921Z,24.58
2023-02-12T01:50:09.274Z,24.85
2023-02-12T01:53:05.188Z,25.13
2023-02-12T01:55:51.192Z,25.10
2023-02-12T01:58:46.920Z,24.90
2023-02-12T02:01:43.382Z,26.40
2023-02-12T02:04:37.168Z,26.50
2023-02-12T02:07:19.939Z,27.75
2023-02-12T02:10:09.244Z,28.00
2023-02-12T02:13:09.972Z,29.77
2023-02-12T02:16:05.259Z,30.08
2023-02-12T02:19:01.032Z,31.55
2023-02-12T02:22:30.235Z,34.53
2023-02-12T02:25:39.967Z,37.92
2023-02-12T02:28:55.659Z,41.15
2023-02-12T02:31:55.015Z,46.17
2023-02-12T02:34:55.998Z,44.17
2023-02-12T02:37:47.323Z,50.28
2023-02-12T02:40:46.077Z,49.20
2023-02-12T02:43:52.083Z,49.15
2023-02-12T02:46:57.040Z,49.40
2023-02-12T02:50:00.210Z,54.28
2023-02-12T02:52:48.940Z,51.78
2023-02-12T02:55:45.886Z,52.13
2023-02-12T02:58:43.967Z,36.67
2023-02-12T03:01:32.612Z,29.90
2023-02-12T03:04:26.960Z,29.25
2023-02-12T03:07:52.990Z,29.10
2023-02-12T03:10:44.227Z,27.13
2023-02-12T03:13:42.927Z,27.35
2023-02-12T03:16:33.431Z,28.00
2023-02-12T03:19:32.958Z,27.58
2023-02-12T03:22:20.294Z,24.92
2023-02-12T03:25:25.881Z,21.55
2023-02-12T03:28:31.935Z,20.02
2023-02-12T03:31:20.207Z,18.83
2023-02-12T03:34:27.032Z,17.40
2023-02-12T03:37:41.246Z,16.92
2023-02-12T03:40:31.963Z,18.05
2023-02-12T03:43:44.333Z,17.27
2023-02-12T03:46:29.982Z,16.50
2023-02-12T03:49:46.860Z,17.17
2023-02-12T03:52:35.942Z,16.23
2023-02-12T03:55:19.369Z,16.05
2023-02-12T03:58:14.921Z,16.60
2023-02-12T04:01:04.929Z,15.68
2023-02-12T04:03:47.234Z,15.05
2023-02-12T04:06:36.907Z,14.57
2023-02-12T04:09:27.829Z,13.55
2023-02-12T04:12:20.892Z,14.27
2023-02-12T04:15:15.247Z,12.82
2023-02-12T04:18:12.983Z,11.65
2023-02-12T04:21:23.298Z,10.48
2023-02-12T04:24:18.837Z,9.95
2023-02-12T04:27:31.148Z,9.90
2023-02-12T04:31:04.072Z,9.10
2023-02-12T04:34:15.781Z,9.30
2023-02-12T04:37:17.906Z,8.02
2023-02-12T04:40:08.962Z,9.27
2023-02-12T04:43:00.136Z,8.13
2023-02-12T04:45:43.912Z,7.38
2023-02-12T04:48:32.247Z,7.25
2023-02-12T04:51:14.293Z,7.40
2023-02-12T04:54:02.236Z,6.95
2023-02-12T04:56:44.966Z,6.88
2023-02-12T04:59:34.230Z,7.32
2023-02-12T05:02:16.865Z,7.53
2023-02-12T05:05:05.258Z,7.70
2023-02-12T05:07:47.975Z,9.88
2023-02-12T05:10:37.170Z,8.75
2023-02-12T05:13:19.850Z,8.35
2023-02-12T05:16:04.973Z,9.53
2023-02-12T05:18:54.038Z,8.63
2023-02-12T05:21:43.238Z,10.38
2023-02-12T05:24:25.991Z,8.75
2023-02-12T05:27:16.321Z,8.90
2023-02-12T05:29:57.927Z,7.90
2023-02-12T05:32:46.269Z,7.53
2023-02-12T05:35:40.873Z,8.15
2023-02-12T05:38:30.748Z,7.53
2023-02-12T05:41:18.973Z,7.97
2023-02-12T05:44:08.410Z,8.02
2023-02-12T05:46:50.980Z,7.28
2023-02-12T05:49:40.221Z,7.95
2023-02-12T05:52:22.881Z,7.90
2023-02-12T05:55:12.172Z,8.20
2023-02-12T05:57:54.611Z,8.38
2023-02-12T06:00:44.360Z,8.10
2023-02-12T06:03:25.955Z,8.40
2023-02-12T06:06:15.011Z,8.55
2023-02-12T06:08:59.404Z,8.35
2023-02-12T06:11:47.979Z,7.28
2023-02-12T06:14:31.911Z,7.88
2023-02-12T06:17:20.875Z,7.10
2023-02-12T06:20:03.139Z,6.82
2023-02-12T06:22:51.934Z,6.78
2023-02-12T06:25:34.229Z,8.77
2023-02-12T06:28:23.055Z,7.68
2023-02-12T06:31:05.335Z,7.30
2023-02-12T06:33:53.964Z,7.10
2023-02-12T06:36:45.661Z,7.28
2023-02-12T06:39:28.898Z,6.22
2023-02-12T06:42:17.368Z,7.60
2023-02-12T06:45:00.004Z,6.90
2023-02-12T06:47:48.218Z,7.13
2023-02-12T06:50:30.966Z,6.15
2023-02-12T06:53:19.232Z,7.05
2023-02-12T06:56:01.976Z,6.85
2023-02-12T06:58:53.192Z,5.75
2023-02-12T07:01:38.186Z,5.63
2023-02-12T07:04:26.229Z,6.43
2023-02-12T07:07:08.997Z,6.40
2023-02-12T07:09:57.172Z,5.90
2023-02-12T07:12:41.911Z,6.65
2023-02-12T07:15:30.172Z,6.20
2023-02-12T07:18:12.953Z,7.32
2023-02-12T07:20:57.893Z,6.75
2023-02-12T07:23:51.032Z,7.10
2023-02-12T07:26:40.182Z,7.50
2023-02-12T07:29:22.956Z,6.45
2023-02-12T07:32:12.040Z,6.30
2023-02-12T07:34:55.342Z,5.47
2023-02-12T07:37:43.954Z,5.20
2023-02-12T07:40:26.188Z,5.43
2023-02-12T07:43:14.904Z,5.05
2023-02-12T07:46:03.902Z,5.22
2023-02-12T07:48:54.260Z,5.15
2023-02-12T07:51:36.917Z,4.65
2023-02-12T07:54:26.137Z,5.10
2023-02-12T07:57:08.969Z,5.40
2023-02-12T07:59:51.119Z,5.13
2023-02-12T08:02:40.965Z,5.30
2023-02-12T08:05:30.236Z,4.07
2023-02-12T08:08:13.272Z,2.90
2023-02-12T08:11:04.137Z,3.40
2023-02-12T08:13:47.002Z,3.60
2023-02-12T08:16:30.920Z,3.47
2023-02-12T08:19:24.880Z,3.85
2023-02-12T08:22:14.201Z,3.95
2023-02-12T08:24:55.843Z,3.13
2023-02-12T08:27:44.207Z,2.67
2023-02-12T08:30:27.092Z,3.10
2023-02-12T08:33:15.247Z,2.70
2023-02-12T08:36:18.876Z,2.58
2023-02-12T08:39:02.232Z,3.20
2023-02-12T08:41:50.977Z,2.90
2023-02-12T08:44:34.157Z,2.45
2023-02-12T08:47:22.875Z,2.45
2023-02-12T08:50:05.146Z,2.17
2023-02-12T08:52:53.959Z,2.60
2023-02-12T08:55:36.193Z,2.70
2023-02-12T08:58:24.924Z,2.90
2023-02-12T09:01:08.252Z,3.83
2023-02-12T09:03:57.956Z,3.13
2023-02-12T09:06:42.297Z,3.70
2023-02-12T09:09:31.199Z,2.22
2023-02-12T09:12:13.188Z,2.80
2023-02-12T09:15:01.954Z,3.08
2023-02-12T09:17:44.818Z,3.13
2023-02-12T09:20:33.911Z,3.10
2023-02-12T09:23:21.229Z,2.55
2023-02-12T09:26:13.999Z,2.40
2023-02-12T09:28:58.300Z,2.60
2023-02-12T09:31:47.034Z,2.75
2023-02-12T09:34:29.262Z,2.85
2023-02-12T09:37:17.960Z,2.50
2023-02-12T09:40:00.206Z,2.80
2023-02-12T09:43:11.825Z,2.83
2023-02-12T09:46:25.737Z,2.60
2023-02-12T09:49:22.872Z,2.70
2023-02-12T09:52:13.775Z,2.38
2023-02-12T09:55:03.882Z,2.65
2023-02-12T09:57:46.423Z,2.63
2023-02-12T10:00:40.002Z,2.60
2023-02-12T10:03:25.283Z,2.30
2023-02-12T10:06:19.903Z,2.45
2023-02-12T10:09:19.411Z,3.63
2023-02-12T10:12:46.853Z,3.05
2023-02-12T10:15:53.437Z,2.55
2023-02-12T10:18:59.904Z,2.60
2023-02-12T10:21:52.180Z,2.35
2023-02-12T10:25:02.941Z,2.40
2023-02-12T10:27:54.198Z,2.97
2023-02-12T10:30:55.081Z,2.60
2023-02-12T10:33:47.457Z,2.22
2023-02-12T10:36:53.351Z,2.10
2023-02-12T10:39:50.357Z,2.70
2023-02-12T10:42:51.943Z,2.35
2023-02-12T10:45:45.194Z,2.40
2023-02-12T10:48:40.919Z,2.30
2023-02-12T10:51:44.206Z,2.50
2023-02-12T10:54:49.060Z,2.40
2023-02-12T10:57:33.151Z,2.42
2023-02-12T11:00:37.181Z,2.00
2023-02-12T11:03:22.601Z,3.95
2023-02-12T11:06:38.956Z,2.30
2023-02-12T11:09:48.355Z,2.40
2023-02-12T11:12:50.969Z,2.22
2023-02-12T11:15:38.201Z,2.40
2023-02-12T11:18:34.944Z,2.40
2023-02-12T11:21:21.335Z,2.28
2023-02-12T11:24:34.962Z,2.10
2023-02-12T11:27:37.396Z,2.10
2023-02-12T11:30:28.926Z,1.85
2023-02-12T11:33:40.287Z,2.00
2023-02-12T11:36:33.881Z,2.25
2023-02-12T11:39:28.172Z,2.50
2023-02-12T11:42:32.381Z,2.63
2023-02-12T11:45:15.186Z,2.13
2023-02-12T11:48:03.864Z,1.90
2023-02-12T11:50:46.307Z,2.03
2023-02-12T11:53:49.962Z,1.67
2023-02-12T11:56:48.338Z,2.10
2023-02-12T11:59:47.936Z,1.90
2023-02-12T12:02:57.202Z,2.20
2023-02-12T12:05:54.014Z,2.20
2023-02-12T12:08:52.167Z,2.47
2023-02-12T12:12:00.946Z,2.05
2023-02-12T12:15:06.768Z,2.08
2023-02-12T12:18:22.887Z,2.60
2023-02-12T12:21:24.247Z,2.15
2023-02-12T12:24:21.862Z,1.90
2023-02-12T12:27:31.805Z,1.90
2023-02-12T12:30:52.826Z,1.90
2023-02-12T12:33:57.947Z,2.50
2023-02-12T12:37:08.415Z,2.00
2023-02-12T12:40:23.849Z,2.53
2023-02-12T12:43:24.301Z,2.58
2023-02-12T12:46:08.902Z,2.72
2023-02-12T12:49:21.386Z,2.50
2023-02-12T12:52:36.889Z,3.38
2023-02-12T12:55:42.822Z,3.08
2023-02-12T12:58:57.950Z,3.40
2023-02-12T13:02:04.266Z,4.72
2023-02-12T13:04:59.942Z,5.50
2023-02-12T13:08:04.154Z,5.72
2023-02-12T13:11:08.863Z,4.55
2023-02-12T13:14:03.170Z,4.30
2023-02-12T13:17:20.834Z,5.68
2023-02-12T13:20:39.885Z,4.75
2023-02-12T13:23:39.142Z,5.97
2023-02-12T13:26:30.930Z,5.68
2023-02-12T13:29:16.302Z,5.82
2023-02-12T13:32:14.112Z,5.43
2023-02-12T13:35:11.183Z,6.57
2023-02-12T13:38:04.005Z,6.35
2023-02-12T13:40:50.684Z,7.57
2023-02-12T13:43:55.824Z,7.72
2023-02-12T13:47:00.266Z,9.60
2023-02-12T13:50:05.011Z,8.85
2023-02-12T13:53:15.403Z,10.00
2023-02-12T13:56:35.888Z,9.88
2023-02-12T13:59:37.363Z,9.38
2023-02-12T14:02:46.050Z,9.15
2023-02-12T14:05:39.236Z,9.44
2023-02-12T14:08:44.917Z,9.55
2023-02-12T14:11:34.250Z,9.88
2023-02-12T14:14:35.909Z,10.02
2023-02-12T14:17:44.200Z,9.27
2023-02-12T14:20:48.194Z,9.75
2023-02-12T14:26:29.909Z,9.02
2023-02-12T14:29:25.882Z,10.18
2023-02-12T14:32:52.952Z,10.05
2023-02-12T14:35:58.001Z,9.20
2023-02-12T14:38:49.874Z,10.50
2023-02-12T14:41:38.612Z,10.13
2023-02-12T14:44:30.927Z,9.27
2023-02-12T14:47:24.260Z,9.32
2023-02-12T14:50:30.998Z,8.90
2023-02-12T14:53:36.436Z,8.73
2023-02-12T14:56:30.954Z,7.93
2023-02-12T14:59:23.445Z,7.75
2023-02-12T15:02:13.896Z,8.95
2023-02-12T15:04:58.487Z,9.05
2023-02-12T15:08:07.845Z,9.25
2023-02-12T15:11:04.982Z,9.77
2023-02-12T15:14:09.698Z,9.93
2023-02-12T15:17:01.831Z,9.88
2023-02-12T15:19:56.263Z,8.85
2023-02-12T15:22:59.248Z,9.18
2023-02-12T15:25:41.993Z,8.88
2023-02-12T15:28:45.924Z,8.82
2023-02-12T15:31:37.397Z,8.93
2023-02-12T15:34:28.855Z,9.07
2023-02-12T15:37:31.944Z,10.00
2023-02-12T15:40:24.188Z,9.10
2023-02-12T15:43:15.869Z,9.65
2023-02-12T15:45:58.506Z,8.63
2023-02-12T15:48:51.861Z,8.52
2023-02-12T15:51:48.097Z,9.18
2023-02-12T15:54:30.893Z,9.35
2023-02-12T15:57:27.293Z,8.88
2023-02-12T16:00:30.930Z,9.45
2023-02-12T16:03:38.327Z,9.05
2023-02-12T16:06:24.962Z,8.63
2023-02-12T16:09:31.237Z,8.55
2023-02-12T16:12:20.870Z,9.00
2023-02-12T16:15:11.943Z,8.38
2023-02-12T16:17:56.902Z,9.48
2023-02-12T16:20:47.865Z,8.45
2023-02-12T16:23:31.905Z,8.35
2023-02-12T16:26:22.872Z,8.18
2023-02-12T16:29:12.818Z,8.30
2023-02-12T16:32:05.328Z,8.30
2023-02-12T16:34:47.834Z,8.93
2023-02-12T16:37:46.740Z,9.15
2023-02-12T16:40:34.241Z,10.15
2023-02-12T16:43:34.231Z,9.70
2023-02-12T16:46:17.656Z,9.90
2023-02-12T16:49:09.298Z,12.43
2023-02-12T16:51:51.883Z,15.18
2023-02-12T16:54:49.810Z,11.40
2023-02-12T16:57:38.753Z,11.32
2023-02-12T17:00:32.799Z,10.00
2023-02-12T17:03:23.013Z,9.30
2023-02-12T17:06:05.130Z,9.27
2023-02-12T17:08:54.137Z,9.52
2023-02-12T17:11:37.070Z,8.80
2023-02-12T17:14:27.874Z,10.02
2023-02-12T17:17:10.366Z,11.10
2023-02-12T17:20:00.909Z,11.40
2023-02-12T17:22:43.172Z,11.30
2023-02-12T17:25:31.832Z,10.82
2023-02-12T17:28:14.375Z,10.50
2023-02-12T17:31:02.990Z,11.23
2023-02-12T17:33:45.530Z,10.43
2023-02-12T17:36:41.843Z,10.52
2023-02-12T17:39:30.202Z,11.63
2023-02-12T17:42:13.842Z,10.23
2023-02-12T17:45:03.259Z,9.73
2023-02-12T17:47:47.887Z,10.82
2023-02-12T17:50:37.263Z,9.95
2023-02-12T17:53:21.132Z,10.30
2023-02-12T17:56:09.221Z,10.07
2023-02-12T17:58:51.875Z,9.57
2023-02-12T18:01:42.115Z,9.55
2023-02-12T18:04:25.026Z,9.23
2023-02-12T18:07:13.229Z,9.63
2023-02-12T18:09:55.878Z,9.45
2023-02-12T18:12:44.162Z,9.20
2023-02-12T18:15:28.795Z,9.50
2023-02-12T18:18:19.110Z,9.27
2023-02-12T18:21:01.820Z,11.45
2023-02-12T18:23:51.245Z,10.20
2023-02-12T18:26:33.898Z,9.63
2023-02-12T18:29:22.198Z,10.30
2023-02-12T18:32:04.822Z,10.00
2023-02-12T18:34:54.104Z,9.85
2023-02-12T18:37:49.877Z,11.00
2023-02-12T18:40:32.067Z,11.60
2023-02-12T18:43:20.837Z,11.18
2023-02-12T18:46:17.968Z,11.93
2023-02-12T18:49:00.220Z,12.40
2023-02-12T18:51:48.836Z,12.10
2023-02-12T18:54:31.145Z,14.10
2023-02-12T18:57:19.805Z,13.70
2023-02-12T19:00:08.824Z,14.00
2023-02-12T19:02:57.104Z,14.75
2023-02-12T19:05:39.784Z,13.30
2023-02-12T19:08:22.150Z,13.95
2023-02-12T19:11:10.824Z,14.48
2023-02-12T19:14:00.335Z,14.07
2023-02-12T19:16:43.870Z,14.98
2023-02-12T19:19:33.317Z,15.33
2023-02-12T19:22:14.802Z,14.80
2023-02-12T19:25:05.152Z,14.27
2023-02-12T19:27:47.871Z,14.45
2023-02-12T19:33:25.809Z,13.52
2023-02-12T19:36:23.898Z,13.93
2023-02-12T19:39:13.097Z,15.25
2023-02-12T19:41:55.846Z,13.52
2023-02-12T19:44:45.651Z,15.38
2023-02-12T19:47:28.816Z,16.20
2023-02-12T19:50:18.120Z,14.40
2023-02-12T19:53:00.868Z,14.30
2023-02-12T19:55:49.131Z,15.88
2023-02-12T19:58:30.762Z,15.90
2023-02-12T20:01:27.271Z,16.60
2023-02-12T20:04:10.823Z,15.73
2023-02-12T20:07:00.241Z,17.45
2023-02-12T20:09:42.765Z,16.98
2023-02-12T20:12:31.135Z,17.90
2023-02-12T20:15:13.785Z,17.65
2023-02-12T20:18:02.163Z,19.48
2023-02-12T20:20:45.199Z,19.13
2023-02-12T20:23:34.145Z,19.05
2023-02-12T20:26:19.860Z,19.95
2023-02-12T20:29:09.086Z,18.67
2023-02-12T20:31:52.976Z,19.63
2023-02-12T20:34:50.621Z,17.67
2023-02-12T20:37:46.802Z,20.55
2023-02-12T20:40:29.032Z,17.73
2023-02-12T20:43:17.818Z,18.88
2023-02-12T20:46:20.141Z,18.23
2023-02-12T20:49:03.803Z,17.23
2023-02-12T20:51:53.788Z,17.05
2023-02-12T20:54:42.716Z,16.40
2023-02-12T20:57:32.818Z,17.05
2023-02-12T21:00:17.088Z,17.17
2023-02-12T21:03:05.817Z,18.40
2023-02-12T21:05:48.076Z,17.38
2023-02-12T21:08:36.843Z,18.20
2023-02-12T21:11:25.101Z,17.60
2023-02-12T21:14:21.796Z,19.65
2023-02-12T21:17:11.839Z,18.25
2023-02-12T21:20:00.128Z,19.20
2023-02-12T21:22:41.840Z,20.30
2023-02-12T21:25:24.119Z,20.13
2023-02-12T21:28:12.767Z,20.45
2023-02-12T21:31:01.172Z,22.10
2023-02-12T21:33:43.830Z,21.48
2023-02-12T21:36:44.646Z,20.35
2023-02-12T21:39:35.860Z,19.33
2023-02-12T21:42:18.107Z,20.33
2023-02-12T21:45:07.208Z,20.23
2023-02-12T21:47:49.146Z,20.08
2023-02-12T21:50:42.719Z,18.95
2023-02-12T21:53:25.102Z,20.08
2023-02-12T21:56:14.744Z,21.00
2023-02-12T21:58:58.032Z,21.25
2023-02-12T22:01:50.783Z,20.02
2023-02-12T22:04:39.716Z,20.98
2023-02-12T22:07:28.747Z,21.25
2023-02-12T22:10:11.058Z,18.65
2023-02-12T22:12:59.761Z,20.00
2023-02-12T22:15:42.026Z,18.27
2023-02-12T22:18:30.759Z,19.10
2023-02-12T22:21:15.088Z,19.63
2023-02-12T22:24:04.756Z,18.13
2023-02-12T22:26:53.783Z,16.90
2023-02-12T22:29:42.069Z,17.45
2023-02-12T22:32:24.971Z,15.90
2023-02-12T22:35:14.045Z,16.55
2023-02-12T22:38:02.848Z,16.20
2023-02-12T22:40:46.117Z,14.90
2023-02-12T22:43:37.710Z,15.02
2023-02-12T22:46:22.145Z,14.15
2023-02-12T22:49:10.796Z,13.88
2023-02-12T22:51:59.714Z,15.55
2023-02-12T22:54:49.033Z,14.15
2023-02-12T22:57:31.728Z,14.02
2023-02-12T23:00:14.417Z,15.77
2023-02-12T23:03:03.742Z,14.95
2023-02-12T23:05:45.928Z,14.23
2023-02-12T23:08:34.804Z,15.88
2023-02-12T23:11:23.700Z,15.45
2023-02-12T23:14:07.749Z,15.65
2023-02-12T23:16:57.165Z,16.52
2023-02-12T23:19:39.802Z,15.13
2023-02-12T23:22:28.051Z,15.13
2023-02-12T23:25:09.718Z,15.32
2023-02-12T23:27:58.000Z,13.95
2023-02-12T23:30:40.823Z,15.00
2023-02-12T23:33:29.046Z,15.70
2023-02-12T23:36:24.763Z,16.50
2023-02-12T23:39:13.007Z,15.60
2023-02-12T23:41:54.778Z,17.02
2023-02-12T23:44:43.101Z,16.02
2023-02-12T23:47:24.775Z,16.15
2023-02-12T23:50:15.173Z,14.27
2023-02-12T23:52:57.767Z,16.90
2023-02-12T23:55:48.086Z,15.63
2023-02-12T23:58:30.088Z,14.65
